Time;durP1;ratioP1;P1;durP2;ratioP2;P2;SDS_P1;SDS_P2;PMS_P1;PMS_P2;Temp;Humidity;BMP_temperature;BMP_pressure;BME280_temperature;BME280_humidity;BME280_pressure;Samples;Min_cycle;Max_cycle;Signal;HPM_P1;HPM_P2
2022/07/03 00:01:41;;;;;;;9.57;3.70;;;21.30;99.90;;;;;;4651443;30;20488;-83
2022/07/03 00:04:06;;;;;;;7.20;3.10;;;21.20;99.90;;;;;;4650201;30;20351;-84
2022/07/03 00:06:40;;;;;;;7.40;3.35;;;21.10;99.90;;;;;;4651492;30;20332;-86
2022/07/03 00:09:06;;;;;;;8.25;3.60;;;21.80;99.90;;;;;;4651502;30;20527;-82
2022/07/03 00:11:32;;;;;;;6.82;3.20;;;21.10;99.90;;;;;;4651750;30;20040;-86
2022/07/03 00:13:59;;;;;;;8.52;3.45;;;21.10;99.90;;;;;;4651670;30;20027;-85
2022/07/03 00:16:28;;;;;;;7.40;3.50;;;21.10;99.90;;;;;;4651171;30;20221;-86
2022/07/03 00:18:54;;;;;;;7.47;3.28;;;21.10;99.90;;;;;;4651359;30;20412;-85
2022/07/03 00:21:25;;;;;;;6.45;3.38;;;21.00;99.90;;;;;;4651441;30;20038;-83
2022/07/03 00:24:00;;;;;;;8.40;3.95;;;21.00;99.90;;;;;;4649754;30;20042;-85
2022/07/03 00:26:28;;;;;;;6.97;3.67;;;20.90;99.90;;;;;;4651161;30;20270;-84
2022/07/03 00:28:56;;;;;;;7.07;3.42;;;20.80;99.90;;;;;;4650965;30;20227;-86
2022/07/03 00:31:23;;;;;;;11.13;3.95;;;20.80;99.90;;;;;;4650912;30;20523;-82
2022/07/03 00:33:53;;;;;;;7.32;2.92;;;20.90;99.90;;;;;;4650860;30;20039;-82
2022/07/03 00:36:20;;;;;;;7.60;3.35;;;20.90;99.90;;;;;;4648832;30;20058;-83
2022/07/03 00:38:53;;;;;;;7.47;4.00;;;20.80;99.90;;;;;;4650688;30;20031;-84
2022/07/03 00:41:24;;;;;;;;;;;20.70;99.90;;;;;;4651149;30;20263;-82
2022/07/03 00:43:50;;;;;;;10.18;3.90;;;20.70;99.90;;;;;;4650873;30;20015;-84
2022/07/03 00:46:20;;;;;;;8.23;3.55;;;20.70;99.90;;;;;;4650616;30;20117;-83
2022/07/03 00:48:48;;;;;;;9.23;4.18;;;20.70;99.90;;;;;;4649032;30;20350;-83
2022/07/03 00:51:16;;;;;;;9.77;3.83;;;20.70;99.90;;;;;;4650323;30;20081;-82
2022/07/03 00:53:42;;;;;;;14.95;5.13;;;20.60;99.90;;;;;;4650524;30;20031;-84
2022/07/03 00:56:13;;;;;;;11.13;3.83;;;20.50;99.90;;;;;;4648874;30;20439;-84
2022/07/03 00:58:40;;;;;;;11.68;4.22;;;20.50;99.90;;;;;;4650488;30;20066;-83
2022/07/03 01:01:08;;;;;;;8.10;3.67;;;20.50;99.90;;;;;;4650361;30;20030;-85
2022/07/03 01:03:43;;;;;;;7.00;3.35;;;20.50;99.90;;;;;;4648998;30;20042;-83
2022/07/03 01:06:14;;;;;;;7.32;3.65;;;20.40;99.90;;;;;;4648859;30;20046;-83
2022/07/03 01:08:45;;;;;;;7.38;3.65;;;20.40;99.90;;;;;;4650428;30;20148;-86
2022/07/03 01:11:23;;;;;;;8.88;3.60;;;20.40;99.90;;;;;;4648873;30;20113;-85
2022/07/03 01:14:26;;;;;;;11.20;4.15;;;20.40;99.90;;;;;;4648978;30;20130;-83
2022/07/03 01:17:02;;;;;;;10.50;4.63;;;20.40;99.90;;;;;;4650215;30;20101;-84
2022/07/03 01:19:33;;;;;;;11.18;4.63;;;20.40;99.90;;;;;;4650107;30;20038;-86
2022/07/03 01:22:41;;;;;;;12.10;4.75;;;20.40;99.90;;;;;;4650627;30;20539;-86
2022/07/03 01:25:21;;;;;;;9.25;4.00;;;20.90;99.90;;;;;;4648756;30;20040;-86
2022/07/03 01:28:05;;;;;;;10.25;3.67;;;20.30;99.90;;;;;;4650032;30;20351;-83
2022/07/03 01:30:36;;;;;;;10.90;4.40;;;20.30;99.90;;;;;;4650142;30;20050;-83
2022/07/03 01:33:06;;;;;;;7.68;4.22;;;20.20;99.90;;;;;;4650068;30;20031;-83
2022/07/03 01:35:33;;;;;;;7.78;3.92;;;20.10;99.90;;;;;;4650251;30;20057;-83
2022/07/03 01:38:05;;;;;;;9.73;3.50;;;20.10;99.90;;;;;;4650113;30;20070;-85
2022/07/03 01:40:37;;;;;;;9.13;3.70;;;20.10;99.90;;;;;;4648659;30;20038;-86
2022/07/03 01:43:06;;;;;;;8.65;3.78;;;20.00;99.90;;;;;;4648971;30;20233;-84
2022/07/03 01:45:36;;;;;;;7.82;4.07;;;20.10;99.90;;;;;;4650386;30;20031;-85
2022/07/03 01:48:04;;;;;;;9.77;4.22;;;20.00;99.90;;;;;;4650752;30;20042;-85
2022/07/03 01:50:31;;;;;;;8.98;3.95;;;20.00;99.90;;;;;;4651954;30;20081;-84
2022/07/03 01:53:01;;;;;;;9.75;3.58;;;20.00;99.90;;;;;;4653182;30;20022;-81
2022/07/03 01:55:31;;;;;;;9.55;3.35;;;21.60;99.90;;;;;;4653829;30;20524;-86
2022/07/03 01:57:59;;;;;;;6.82;3.78;;;19.90;99.90;;;;;;4654567;30;20046;-87
2022/07/03 02:00:26;;;;;;;9.05;4.35;;;19.90;99.90;;;;;;4670290;30;20034;-87
2022/07/03 02:02:59;;;;;;;12.63;4.72;;;19.90;99.90;;;;;;4654651;30;20510;-83
2022/07/03 02:05:32;;;;;;;15.55;3.95;;;19.80;99.90;;;;;;4654630;30;20324;-86
2022/07/03 02:08:26;;;;;;;10.07;4.28;;;19.80;99.90;;;;;;4670045;30;20034;-86
2022/07/03 02:11:18;;;;;;;7.03;3.28;;;19.70;99.90;;;;;;4654327;30;20320;-87
2022/07/03 02:14:06;;;;;;;7.35;3.65;;;19.70;99.90;;;;;;4654403;30;20108;-84
2022/07/03 02:16:49;;;;;;;11.20;3.67;;;19.60;99.90;;;;;;4654417;30;20042;-85
2022/07/03 02:19:15;;;;;;;7.85;3.75;;;19.60;99.90;;;;;;4670216;30;20516;-84
2022/07/03 02:21:49;;;;;;;9.10;4.13;;;19.50;99.90;;;;;;4670067;30;20042;-84
2022/07/03 02:24:22;;;;;;;;;;;19.60;99.90;;;;;;4655474;30;20038;-86
2022/07/03 02:26:58;;;;;;;9.43;3.75;;;19.50;99.90;;;;;;4654690;30;20105;-84
2022/07/03 02:29:46;;;;;;;8.43;3.53;;;19.50;99.90;;;;;;4654676;30;20042;-86
2022/07/03 02:32:17;;;;;;;11.25;3.97;;;19.40;99.90;;;;;;4670191;30;20347;-84
2022/07/03 02:34:47;;;;;;;11.32;4.88;;;19.50;99.90;;;;;;4654113;30;20104;-86
2022/07/03 02:37:18;;;;;;;9.65;3.97;;;19.50;99.90;;;;;;4653957;30;20404;-83
2022/07/03 02:39:59;;;;;;;8.38;3.85;;;19.40;99.90;;;;;;4654331;30;20041;-83
2022/07/03 02:42:47;;;;;;;11.23;4.03;;;19.40;99.90;;;;;;4654263;30;20313;-87
2022/07/03 02:45:13;;;;;;;7.47;4.22;;;19.40;99.90;;;;;;4653904;30;20046;-85
2022/07/03 02:48:04;;;;;;;8.43;4.00;;;19.50;99.90;;;;;;4654831;30;20558;-85
2022/07/03 02:50:33;;;;;;;9.18;4.80;;;19.50;99.90;;;;;;4655278;30;20045;-84
2022/07/03 02:53:08;;;;;;;7.88;3.83;;;19.50;99.90;;;;;;4655643;30;20131;-86
2022/07/03 02:55:43;;;;;;;10.00;4.10;;;19.50;99.90;;;;;;4670404;30;20085;-86
2022/07/03 02:58:25;;;;;;;11.02;3.65;;;19.50;99.90;;;;;;4654147;30;20026;-83
2022/07/03 03:01:03;;;;;;;7.47;3.83;;;19.60;99.90;;;;;;4653680;30;20046;-86
2022/07/03 03:03:30;;;;;;;9.13;4.03;;;19.60;99.90;;;;;;4653609;30;20034;-87
2022/07/03 03:06:20;;;;;;;8.90;4.20;;;19.60;99.90;;;;;;4653718;30;20658;-85
2022/07/03 03:08:52;;;;;;;9.10;4.75;;;19.60;99.90;;;;;;4653817;30;20129;-84
2022/07/03 03:11:24;;;;;;;8.75;4.63;;;19.50;99.90;;;;;;4653923;30;20139;-87
2022/07/03 03:13:54;;;;;;;8.13;3.53;;;19.50;99.90;;;;;;4669318;30;20061;-85
2022/07/03 03:16:20;;;;;;;9.27;3.95;;;19.50;99.90;;;;;;4653592;30;20034;-85
2022/07/03 03:18:48;;;;;;;8.45;3.63;;;19.50;99.90;;;;;;4653486;30;20530;-83
2022/07/03 03:21:17;;;;;;;9.38;4.25;;;19.50;99.90;;;;;;4668935;30;20816;-83
2022/07/03 03:23:52;;;;;;;9.93;4.47;;;19.60;99.90;;;;;;4653317;30;20697;-82
2022/07/03 03:26:18;;;;;;;7.30;3.83;;;19.60;99.90;;;;;;4669156;30;20395;-85
2022/07/03 03:28:45;;;;;;;9.45;3.97;;;19.60;99.90;;;;;;4653364;30;20104;-85
2022/07/03 03:31:11;;;;;;;6.97;3.53;;;19.70;99.90;;;;;;4653383;30;20042;-84
2022/07/03 03:33:45;;;;;;;9.93;4.65;;;19.80;99.90;;;;;;4668660;30;20030;-84
2022/07/03 03:36:13;;;;;;;7.75;3.80;;;19.90;99.90;;;;;;4653349;30;20537;-83
2022/07/03 03:38:40;;;;;;;8.93;4.10;;;19.90;99.90;;;;;;4668903;30;20259;-84
2022/07/03 03:41:07;;;;;;;9.13;4.10;;;19.80;99.90;;;;;;4669025;30;20515;-84
2022/07/03 03:43:34;;;;;;;8.60;4.53;;;19.70;99.90;;;;;;4668786;30;20132;-85
2022/07/03 03:46:01;;;;;;;8.57;4.10;;;19.50;99.90;;;;;;4653338;30;20432;-85
2022/07/03 03:48:27;;;;;;;10.43;4.97;;;19.40;99.90;;;;;;4670735;30;20042;-85
2022/07/03 03:51:03;;;;;;;12.20;4.90;;;19.40;99.90;;;;;;4678081;30;20339;-87
2022/07/03 03:53:30;;;;;;;8.13;3.78;;;19.40;99.90;;;;;;4669116;30;20052;-86
2022/07/03 03:56:08;;;;;;;14.73;5.25;;;19.60;99.90;;;;;;4668730;30;20058;-84
2022/07/03 03:58:36;;;;;;;8.43;3.92;;;19.60;99.90;;;;;;4668833;30;20041;-86
2022/07/03 04:01:10;;;;;;;10.15;4.45;;;19.60;99.90;;;;;;4668669;30;20029;-83
2022/07/03 04:03:37;;;;;;;7.70;3.88;;;19.60;99.90;;;;;;4667991;30;20530;-84
2022/07/03 04:06:03;;;;;;;9.77;4.25;;;19.70;99.90;;;;;;4668132;30;20530;-80
2022/07/03 04:08:31;;;;;;;8.55;4.20;;;19.80;99.90;;;;;;4652661;30;20196;-85
2022/07/03 04:10:57;;;;;;;9.45;4.45;;;19.90;99.90;;;;;;4651695;30;20073;-83
2022/07/03 04:13:23;;;;;;;9.02;5.35;;;19.90;99.90;;;;;;4668370;30;20330;-84
2022/07/03 04:15:51;;;;;;;11.93;4.78;;;19.90;99.90;;;;;;4667785;30;20033;-85
2022/07/03 04:18:18;;;;;;;12.98;4.47;;;19.90;99.90;;;;;;4652478;30;20137;-87
2022/07/03 04:20:44;;;;;;;8.10;4.45;;;19.90;99.90;;;;;;4668149;30;20727;-86
2022/07/03 04:23:10;;;;;;;8.77;3.95;;;20.00;99.90;;;;;;4667950;30;20557;-81
2022/07/03 04:25:36;;;;;;;8.27;4.40;;;19.90;99.90;;;;;;4668030;30;20381;-85
2022/07/03 04:28:01;;;;;;;9.05;4.28;;;19.70;99.90;;;;;;4667735;30;20034;-84
2022/07/03 04:30:27;;;;;;;8.40;3.95;;;20.70;99.90;;;;;;4667772;30;20046;-85
2022/07/03 04:32:53;;;;;;;8.35;4.15;;;19.90;99.90;;;;;;4667810;30;20034;-84
2022/07/03 04:35:19;;;;;;;9.55;3.95;;;20.00;99.90;;;;;;4667793;30;20029;-85
2022/07/03 04:37:45;;;;;;;8.45;4.22;;;20.00;99.90;;;;;;4667898;30;20519;-84
2022/07/03 04:40:12;;;;;;;10.13;4.40;;;20.10;99.90;;;;;;4667583;30;20527;-83
2022/07/03 04:42:38;;;;;;;12.48;4.72;;;20.10;99.90;;;;;;4667784;30;20044;-84
2022/07/03 04:45:04;;;;;;;10.38;4.72;;;20.10;99.90;;;;;;4667529;30;20463;-86
2022/07/03 04:47:36;;;;;;;9.80;4.75;;;20.20;99.90;;;;;;4667662;30;20065;-87
2022/07/03 04:50:02;;;;;;;9.65;5.18;;;20.20;99.90;;;;;;4667403;30;20311;-86
2022/07/03 04:52:27;;;;;;;14.55;7.15;;;20.30;99.90;;;;;;4652012;30;20492;-84
2022/07/03 04:54:53;;;;;;;22.17;11.07;;;20.20;99.90;;;;;;4667562;30;20101;-85
2022/07/03 04:57:19;;;;;;;27.77;11.68;;;20.20;99.90;;;;;;4648718;30;20534;-84
2022/07/03 04:59:46;;;;;;;13.88;6.25;;;20.30;99.90;;;;;;4650242;30;20381;-85
2022/07/03 05:02:12;;;;;;;18.92;7.78;;;20.30;99.90;;;;;;4650365;30;20027;-86
2022/07/03 05:04:38;;;;;;;10.60;4.70;;;20.30;99.90;;;;;;4650470;30;20229;-85
2022/07/03 05:07:04;;;;;;;12.93;4.45;;;20.30;99.90;;;;;;4650353;30;20239;-86
2022/07/03 05:09:30;;;;;;;8.77;4.78;;;20.20;99.90;;;;;;4650035;30;20039;-84
2022/07/03 05:11:58;;;;;;;11.10;5.15;;;20.20;99.90;;;;;;4650194;30;20045;-84
2022/07/03 05:14:24;;;;;;;11.95;5.25;;;20.30;99.90;;;;;;4648667;30;20607;-83
2022/07/03 05:16:53;;;;;;;10.82;4.35;;;20.30;99.90;;;;;;4648431;30;20042;-85
2022/07/03 05:19:19;;;;;;;9.20;4.22;;;20.20;99.90;;;;;;4650570;30;20042;-86
2022/07/03 05:21:44;;;;;;;9.68;4.70;;;20.30;99.90;;;;;;4649325;30;20377;-84
2022/07/03 05:24:10;;;;;;;8.63;4.30;;;20.50;99.90;;;;;;4649119;30;20479;-83
2022/07/03 05:26:42;;;;;;;12.50;4.55;;;20.50;99.90;;;;;;4650345;30;20113;-86
2022/07/03 05:29:08;;;;;;;10.85;4.90;;;20.60;99.90;;;;;;4648659;30;20232;-84
2022/07/03 05:31:36;;;;;;;8.98;5.00;;;20.60;99.90;;;;;;4650198;30;20037;-85
2022/07/03 05:34:02;;;;;;;8.27;4.88;;;20.60;99.90;;;;;;4650095;30;20026;-82
2022/07/03 05:36:28;;;;;;;14.75;4.80;;;20.70;99.90;;;;;;4649963;30;20121;-83
2022/07/03 05:41:40;;;;;;;9.55;4.28;;;21.00;99.90;;;;;;4650416;30;20112;-86
2022/07/03 05:44:06;;;;;;;11.63;4.57;;;21.20;99.90;;;;;;4650364;30;20034;-83
2022/07/03 05:46:31;;;;;;;11.25;4.80;;;21.30;99.90;;;;;;4648387;30;20216;-85
2022/07/03 05:48:57;;;;;;;10.40;4.82;;;21.50;99.90;;;;;;4648293;30;20069;-83
2022/07/03 05:51:23;;;;;;;11.73;5.32;;;21.60;99.90;;;;;;4650120;30;20039;-82
2022/07/03 05:53:49;;;;;;;9.55;5.13;;;21.80;99.90;;;;;;4649933;30;20316;-82
2022/07/03 05:56:14;;;;;;;11.75;5.90;;;21.90;99.90;;;;;;4657566;30;20569;-83
2022/07/03 05:58:41;;;;;;;8.95;4.65;;;22.00;99.60;;;;;;4666784;30;20041;-84
2022/07/03 06:01:13;;;;;;;12.68;5.80;;;22.10;99.60;;;;;;4651294;30;20038;-82
2022/07/03 06:03:39;;;;;;;11.15;6.18;;;22.20;99.70;;;;;;4650959;30;20352;-85
2022/07/03 06:06:05;;;;;;;14.35;6.38;;;22.30;99.80;;;;;;4666348;30;20204;-83
2022/07/03 06:08:30;;;;;;;10.18;4.88;;;22.40;99.80;;;;;;4666141;30;20066;-84
2022/07/03 06:10:56;;;;;;;10.70;4.65;;;22.60;99.30;;;;;;4666611;30;20579;-84
2022/07/03 06:13:22;;;;;;;13.88;6.15;;;22.50;98.80;;;;;;4667259;30;20045;-83
2022/07/03 06:15:56;;;;;;;10.90;5.32;;;22.70;98.50;;;;;;4652102;30;20073;-86
2022/07/03 06:18:24;;;;;;;12.57;5.40;;;;;;;;;;4667052;30;20324;-84
2022/07/03 06:20:59;;;;;;;9.57;4.90;;;22.80;98.10;;;;;;4667053;30;20637;-85
2022/07/03 06:23:25;;;;;;;10.85;5.47;;;22.90;98.30;;;;;;4651164;30;20068;-82
2022/07/03 06:25:51;;;;;;;11.55;5.60;;;23.00;98.50;;;;;;4666696;30;20026;-86
2022/07/03 06:28:17;;;;;;;15.35;5.50;;;23.10;98.30;;;;;;4666738;30;20351;-83
2022/07/03 06:30:43;;;;;;;8.88;5.22;;;23.20;98.00;;;;;;4666390;30;20038;-83
2022/07/03 06:33:24;;;;;;;10.35;5.60;;;23.30;97.70;;;;;;4666872;30;20427;-85
2022/07/03 06:35:50;;;;;;;13.95;5.45;;;22.40;97.50;;;;;;4815460;25;20058;-85
2022/07/03 06:38:15;;;;;;;13.10;5.68;;;23.50;97.30;;;;;;4654304;30;20324;-84
2022/07/03 06:40:47;;;;;;;11.90;6.10;;;23.50;97.10;;;;;;4670019;30;20038;-86
2022/07/03 06:43:13;;;;;;;10.60;5.18;;;23.50;97.30;;;;;;4669665;30;20033;-84
2022/07/03 06:45:39;;;;;;;12.20;5.25;;;23.60;97.30;;;;;;4654488;30;20426;-83
2022/07/03 06:48:11;;;;;;;11.15;5.22;;;23.70;97.10;;;;;;4673319;25;20721;-85
2022/07/03 06:50:42;;;;;;;10.85;5.78;;;23.80;97.40;;;;;;4656802;30;20045;-86
2022/07/03 06:53:18;;;;;;;13.65;5.30;;;23.90;97.00;;;;;;4685336;30;20030;-86
2022/07/03 06:56:08;;;;;;;9.38;4.82;;;24.00;96.80;;;;;;4686603;30;20376;-86
2022/07/03 06:58:46;;;;;;;8.18;4.35;;;24.10;96.70;;;;;;4685381;30;20030;-83
2022/07/03 07:01:12;;;;;;;11.05;5.45;;;24.30;96.40;;;;;;4686786;30;20231;-82
2022/07/03 07:03:40;;;;;;;11.43;5.60;;;24.30;96.50;;;;;;4686761;30;20036;-85
2022/07/03 07:08:50;;;;;;;11.85;5.70;;;24.50;95.90;;;;;;4673031;25;20107;-81
2022/07/03 07:11:15;;;;;;;11.50;5.20;;;24.40;96.30;;;;;;4653536;30;20046;-82
2022/07/03 07:14:14;;;;;;;11.27;5.70;;;24.60;95.60;;;;;;4653705;30;20068;-85
2022/07/03 07:16:40;;;;;;;10.48;5.65;;;24.90;95.30;;;;;;4669495;30;20034;-83
2022/07/03 07:19:06;;;;;;;11.38;5.43;;;;;;;;;;4669269;30;20204;-82
2022/07/03 07:21:45;;;;;;;14.13;5.50;;;26.20;95.00;;;;;;4669251;30;20167;-84
2022/07/03 07:24:19;;;;;;;8.70;4.97;;;25.20;94.90;;;;;;4669175;30;20332;-84
2022/07/03 07:27:03;;;;;;;13.57;6.45;;;25.40;94.70;;;;;;4653314;30;20120;-83
2022/07/03 07:29:37;;;;;;;10.65;5.57;;;25.40;94.50;;;;;;4668812;30;20173;-83
2022/07/03 07:35:10;;;;;;;11.95;6.03;;;26.00;95.30;;;;;;4679362;25;20519;-82
2022/07/03 07:37:35;;;;;;;15.10;5.75;;;26.80;94.00;;;;;;4685794;30;20040;-86
2022/07/03 07:40:04;;;;;;;12.25;5.32;;;27.50;93.90;;;;;;4685861;30;20452;-86
2022/07/03 07:42:45;;;;;;;10.93;5.28;;;26.10;93.30;;;;;;4670060;30;20033;-85
2022/07/03 07:45:18;;;;;;;14.55;5.63;;;26.30;93.30;;;;;;4670311;30;20034;-85
2022/07/03 07:47:50;;;;;;;12.70;6.35;;;26.60;93.20;;;;;;4685924;30;20141;-84
2022/07/03 07:50:22;;;;;;;10.50;5.50;;;26.40;92.80;;;;;;4683863;30;20061;-84
2022/07/03 07:52:48;;;;;;;11.80;5.40;;;;;;;;;;4685330;30;20033;-82
2022/07/03 07:55:14;;;;;;;11.98;5.57;;;26.50;92.30;;;;;;4683635;30;20033;-85
2022/07/03 07:57:40;;;;;;;11.88;6.30;;;26.70;92.40;;;;;;4665155;30;20528;-84
2022/07/03 08:00:14;;;;;;;11.68;6.43;;;26.80;91.90;;;;;;4650649;30;20052;-85
2022/07/03 08:05:50;;;;;;;13.10;5.38;;;27.20;91.50;;;;;;4665108;30;20076;-86
2022/07/03 08:08:17;;;;;;;10.25;4.97;;;27.80;91.80;;;;;;4650559;30;20427;-86
2022/07/03 08:10:52;;;;;;;9.55;5.55;;;27.30;91.20;;;;;;4650695;30;20053;-84
2022/07/03 08:13:26;;;;;;;15.57;5.68;;;27.30;91.10;;;;;;4665188;30;20068;-85
2022/07/03 08:15:55;;;;;;;9.23;5.13;;;27.30;91.10;;;;;;4650696;30;20073;-86
2022/07/03 08:18:21;;;;;;;10.63;5.80;;;27.60;90.50;;;;;;4648488;30;20053;-84
2022/07/03 08:20:52;;;;;;;13.65;6.22;;;27.90;90.30;;;;;;4648745;30;20829;-85
2022/07/03 08:23:18;;;;;;;9.88;4.88;;;28.00;89.70;;;;;;4647877;30;20680;-83
2022/07/03 08:25:44;;;;;;;11.07;5.95;;;28.00;89.70;;;;;;4633796;30;20316;-84
2022/07/03 08:28:28;;;;;;;11.85;5.95;;;28.20;89.00;;;;;;4659136;25;20554;-86
2022/07/03 08:30:54;;;;;;;10.32;5.13;;;28.20;89.30;;;;;;4652413;30;20073;-84
2022/07/03 08:33:28;;;;;;;11.20;5.82;;;28.50;88.00;;;;;;4667877;30;20081;-85
2022/07/03 08:35:54;;;;;;;10.57;5.82;;;28.20;87.20;;;;;;4652158;30;20507;-84
2022/07/03 08:38:20;;;;;;;10.73;5.65;;;28.30;86.90;;;;;;4667480;30;20400;-82
2022/07/03 08:40:50;;;;;;;13.68;5.82;;;28.20;87.30;;;;;;4652056;30;20030;-83
2022/07/03 08:43:25;;;;;;;11.30;5.63;;;28.00;87.30;;;;;;4667719;30;20030;-83
2022/07/03 08:45:50;;;;;;;9.98;6.32;;;28.80;86.20;;;;;;4652010;30;20085;-84
2022/07/03 08:48:22;;;;;;;9.77;5.38;;;28.90;84.70;;;;;;4687058;25;20439;-84
2022/07/03 08:50:48;;;;;;;9.75;5.13;;;28.90;85.70;;;;;;4651949;30;20225;-83
2022/07/03 08:53:16;;;;;;;10.63;6.03;;;29.20;84.80;;;;;;4652269;30;20457;-83
2022/07/03 08:55:42;;;;;;;10.20;5.13;;;29.50;83.60;;;;;;4652175;30;20033;-84
2022/07/03 08:58:22;;;;;;;11.35;5.65;;;29.60;83.10;;;;;;4651663;30;20030;-85
2022/07/03 09:00:49;;;;;;;11.30;5.97;;;29.50;82.40;;;;;;4651910;30;20030;-85
2022/07/03 09:03:14;;;;;;;13.27;6.45;;;29.60;82.50;;;;;;4652045;30;20079;-83
2022/07/03 09:05:41;;;;;;;13.10;6.18;;;29.80;82.10;;;;;;4667878;30;20118;-83
2022/07/03 09:08:08;;;;;;;10.95;6.60;;;29.90;82.80;;;;;;4652122;30;20057;-84
2022/07/03 09:10:34;;;;;;;12.43;5.38;;;30.20;81.50;;;;;;4651818;30;20034;-83
2022/07/03 09:13:01;;;;;;;9.57;5.18;;;30.10;81.20;;;;;;4667480;30;20033;-83
2022/07/03 09:15:29;;;;;;;10.90;5.85;;;30.20;80.60;;;;;;4667729;30;20038;-85
2022/07/03 09:18:00;;;;;;;13.48;5.95;;;30.50;80.20;;;;;;4666751;30;20054;-83
2022/07/03 09:20:40;;;;;;;12.00;6.28;;;30.60;79.40;;;;;;4651564;30;20030;-83
2022/07/03 09:23:15;;;;;;;13.93;6.18;;;30.50;80.20;;;;;;4651730;30;20132;-84
2022/07/03 09:26:14;;;;;;;11.65;5.97;;;30.60;79.00;;;;;;4651705;30;20351;-85
2022/07/03 09:28:55;;;;;;;10.80;6.43;;;30.50;79.00;;;;;;4582803;31;20419;-84
2022/07/03 09:31:26;;;;;;;13.30;6.10;;;30.50;80.10;;;;;;4582940;31;20091;-86
2022/07/03 09:34:07;;;;;;;14.38;5.30;;;30.60;80.30;;;;;;4596961;31;20215;-84
2022/07/03 09:36:47;;;;;;;11.75;5.47;;;30.80;79.50;;;;;;4596484;31;20136;-85
2022/07/03 09:39:30;;;;;;;11.55;5.10;;;31.00;79.00;;;;;;4596988;31;20059;-84
2022/07/03 09:42:05;;;;;;;;;;;31.20;78.10;;;;;;4596963;31;20031;-86
2022/07/03 09:44:41;;;;;;;12.23;5.15;;;31.20;79.00;;;;;;4596440;31;20484;-86
2022/07/03 09:47:07;;;;;;;9.77;4.80;;;31.30;78.30;;;;;;4596617;31;20032;-84
2022/07/03 09:49:54;;;;;;;9.05;4.95;;;31.60;77.50;;;;;;4596115;31;20146;-86
2022/07/03 09:52:42;;;;;;;9.68;5.20;;;31.80;75.20;;;;;;4582557;31;20130;-85
2022/07/03 09:55:10;;;;;;;11.63;5.80;;;31.90;73.90;;;;;;4596240;31;20032;-86
2022/07/03 09:57:39;;;;;;;10.30;5.28;;;31.40;73.80;;;;;;4582467;31;20589;-86
2022/07/03 10:00:21;;;;;;;10.68;5.05;;;31.60;74.30;;;;;;4595917;31;20039;-86
2022/07/03 10:02:55;;;;;;;8.90;4.63;;;31.60;73.20;;;;;;4582434;31;20670;-86
2022/07/03 10:05:23;;;;;;;10.57;5.30;;;31.90;72.50;;;;;;4661922;30;20251;-86
2022/07/03 10:07:54;;;;;;;15.02;4.88;;;32.10;71.40;;;;;;4666755;30;20331;-82
2022/07/03 10:10:24;;;;;;;10.15;5.40;;;32.20;71.70;;;;;;4653826;30;20525;-84
2022/07/03 10:12:53;;;;;;;10.73;5.15;;;32.40;69.60;;;;;;4669809;30;20045;-87
2022/07/03 10:15:21;;;;;;;9.85;5.53;;;32.50;69.80;;;;;;4654596;30;20034;-85
2022/07/03 10:17:56;;;;;;;9.70;5.35;;;32.70;68.60;;;;;;4654401;30;20038;-84
2022/07/03 10:20:38;;;;;;;13.77;4.90;;;32.70;67.90;;;;;;4654685;30;20362;-84
2022/07/03 10:23:04;;;;;;;9.80;4.88;;;32.90;67.00;;;;;;4654303;30;20316;-86
2022/07/03 10:25:31;;;;;;;9.77;5.35;;;32.90;66.10;;;;;;4654153;30;20354;-86
2022/07/03 10:27:57;;;;;;;9.57;5.35;;;33.20;65.00;;;;;;4670060;30;20041;-87
2022/07/03 10:30:29;;;;;;;9.27;5.35;;;33.20;64.00;;;;;;4653423;30;20520;-86
2022/07/03 10:33:07;;;;;;;9.35;4.38;;;33.40;62.30;;;;;;4654117;30;20046;-85
2022/07/03 10:35:52;;;;;;;10.95;4.45;;;33.60;62.70;;;;;;4670050;30;20280;-86
2022/07/03 10:38:40;;;;;;;7.65;4.72;;;33.80;61.10;;;;;;4656364;30;20273;-87
2022/07/03 10:46:51;;;;;;;10.35;4.05;;;34.30;56.90;;;;;;4674358;30;20283;-84
2022/07/03 10:49:16;;;;;;;9.15;4.07;;;34.20;54.70;;;;;;4654565;30;20054;-84
2022/07/03 10:51:46;;;;;;;11.48;4.00;;;34.40;54.60;;;;;;4670354;30;20258;-83
2022/07/03 10:54:36;;;;;;;9.13;3.92;;;34.30;49.00;;;;;;4669849;30;20294;-83
2022/07/03 10:59:52;;;;;;;9.10;4.78;;;34.80;52.10;;;;;;4669398;25;20367;-83
2022/07/03 11:02:43;;;;;;;9.55;4.57;;;33.40;52.20;;;;;;4653666;30;20038;-84
2022/07/03 11:05:11;;;;;;;11.30;4.68;;;35.00;53.80;;;;;;4653666;30;20545;-83
2022/07/03 11:07:53;;;;;;;12.02;5.18;;;35.20;51.00;;;;;;4653706;30;20045;-82
2022/07/03 11:10:25;;;;;;;14.10;5.32;;;34.80;52.90;;;;;;4670592;30;20384;-85
2022/07/03 11:16:21;;;;;;;9.98;4.60;;;35.60;52.40;;;;;;4675895;25;20058;-86
2022/07/03 11:27:42;;;;;;;8.10;4.05;;;36.10;48.00;;;;;;4681675;25;20057;-86
2022/07/03 11:30:10;;;;;;;7.13;3.67;;;36.30;48.90;;;;;;4661497;25;20054;-84
2022/07/03 11:32:57;;;;;;;11.20;4.38;;;36.60;47.00;;;;;;4668743;30;20038;-82
2022/07/03 11:39:07;;;;;;;12.07;3.97;;;35.50;46.00;;;;;;4714481;25;20438;-84
2022/07/03 11:44:24;;;;;;;10.85;3.92;;;37.00;45.80;;;;;;4647287;25;20371;-84
2022/07/03 11:46:51;;;;;;;;;;;37.70;45.50;;;;;;4668745;30;20252;-84
2022/07/03 11:49:47;;;;;;;11.70;3.67;;;37.50;44.70;;;;;;4668529;30;19919;-85
2022/07/03 11:52:38;;;;;;;7.28;3.65;;;38.50;44.50;;;;;;4652757;30;20057;-84
2022/07/03 11:55:07;;;;;;;11.13;4.05;;;39.50;44.30;;;;;;4666256;25;20062;-85
2022/07/03 12:00:45;;;;;;;8.88;4.65;;;39.90;43.10;;;;;;4675099;25;20523;-83
2022/07/03 12:03:26;;;;;;;7.78;3.20;;;39.10;44.00;;;;;;4668593;30;20089;-87
2022/07/03 12:06:10;;;;;;;8.80;3.40;;;39.70;42.10;;;;;;4662831;25;20145;-82
2022/07/03 12:08:47;;;;;;;9.95;3.53;;;39.40;41.70;;;;;;4680662;25;20183;-85
2022/07/03 12:11:16;;;;;;;6.50;3.90;;;40.30;40.60;;;;;;4667792;30;20041;-82
2022/07/03 12:13:54;;;;;;;7.40;3.63;;;39.90;39.90;;;;;;4668914;25;20053;-83
2022/07/03 12:16:37;;;;;;;7.82;3.20;;;39.50;40.40;;;;;;4689167;25;20057;-83
2022/07/03 12:19:15;;;;;;;6.90;3.35;;;38.70;40.60;;;;;;4652141;30;20042;-85
2022/07/03 12:21:43;;;;;;;7.18;3.35;;;40.60;40.90;;;;;;4652045;30;20060;-86
2022/07/03 12:26:40;;;;;;;8.10;3.10;;;41.20;38.90;;;;;;4649113;30;20311;-83
2022/07/03 12:29:20;;;;;;;8.88;3.30;;;41.70;39.70;;;;;;4650904;30;20046;-82
2022/07/03 12:31:58;;;;;;;12.32;3.53;;;41.70;37.20;;;;;;4650284;30;20536;-83
2022/07/03 12:34:24;;;;;;;6.18;2.75;;;42.80;37.60;;;;;;4651050;30;20114;-82
2022/07/03 12:36:58;;;;;;;6.18;2.92;;;43.10;38.00;;;;;;4635500;30;20551;-84
2022/07/03 12:40:02;;;;;;;8.25;3.47;;;43.00;36.60;;;;;;4634946;30;20050;-83
2022/07/03 12:42:28;;;;;;;10.35;3.50;;;42.40;36.00;;;;;;4635496;30;20039;-82
2022/07/03 12:45:37;;;;;;;9.93;3.63;;;42.10;37.20;;;;;;4651975;25;20093;-85
2022/07/03 12:50:46;;;;;;;11.70;3.15;;;42.70;35.40;;;;;;4632224;30;20249;-83
2022/07/03 12:53:26;;;;;;;7.57;3.40;;;43.20;35.70;;;;;;4618641;30;20031;-84
2022/07/03 12:55:52;;;;;;;7.60;3.20;;;43.20;34.50;;;;;;4635783;30;20278;-83
2022/07/03 13:01:44;;;;;;;7.22;3.17;;;43.20;35.30;;;;;;4667931;30;20124;-84
2022/07/03 13:04:37;;;;;;;9.63;3.72;;;42.70;36.00;;;;;;4667221;30;20058;-84
2022/07/03 13:07:15;;;;;;;10.73;3.92;;;43.30;34.80;;;;;;4667070;30;20597;-85
2022/07/03 13:10:04;;;;;;;11.48;4.10;;;40.60;33.50;;;;;;4666991;30;20061;-84
2022/07/03 13:12:30;;;;;;;6.95;3.30;;;41.50;34.20;;;;;;4666999;30;20041;-82
2022/07/03 13:15:08;;;;;;;7.13;3.25;;;43.60;34.50;;;;;;4667357;30;20038;-84
2022/07/03 13:17:49;;;;;;;7.82;3.42;;;43.90;34.50;;;;;;4666899;30;20034;-84
2022/07/03 13:20:15;;;;;;;9.45;3.42;;;44.20;35.10;;;;;;4667115;30;20026;-83
2022/07/03 13:22:41;;;;;;;8.18;3.60;;;45.20;34.00;;;;;;4651485;30;20444;-81
2022/07/03 13:25:07;;;;;;;7.47;3.53;;;45.60;33.50;;;;;;4667125;30;20046;-80
2022/07/03 13:27:33;;;;;;;9.07;4.22;;;46.70;33.70;;;;;;4651392;30;20546;-83
2022/07/03 13:29:59;;;;;;;9.20;4.13;;;45.80;33.30;;;;;;4666524;30;20038;-83
2022/07/03 13:32:28;;;;;;;9.50;4.38;;;46.30;34.30;;;;;;4666677;30;20531;-84
2022/07/03 13:34:54;;;;;;;9.32;4.32;;;46.40;36.30;;;;;;4651200;30;20040;-83
2022/07/03 13:37:26;;;;;;;11.88;4.82;;;46.50;36.60;;;;;;4666886;30;20042;-84
2022/07/03 13:39:52;;;;;;;9.63;5.10;;;47.00;36.80;;;;;;4651348;30;20042;-83
2022/07/03 13:42:18;;;;;;;6.03;3.80;;;46.70;36.80;;;;;;4651199;30;20108;-83
2022/07/03 13:44:50;;;;;;;11.13;5.57;;;46.60;37.50;;;;;;4670038;30;20030;-84
2022/07/03 13:47:18;;;;;;;7.68;4.15;;;45.40;37.60;;;;;;4654757;30;20026;-82
2022/07/03 13:49:50;;;;;;;8.25;4.35;;;46.00;37.70;;;;;;4654734;30;20037;-85
2022/07/03 13:52:28;;;;;;;8.15;3.95;;;45.20;38.70;;;;;;4654957;30;20037;-84
2022/07/03 13:54:54;;;;;;;10.77;5.95;;;43.80;38.90;;;;;;4670436;30;20562;-81
2022/07/03 13:57:36;;;;;;;9.52;4.35;;;42.50;40.20;;;;;;4654735;30;20038;-83